sensor_id;sensor_type;location;lat;lon;timestamp;temperature;humidity
54898;DHT22;40800;52.704;6.398;2023-05-07T00:01:43;15.00;99.90
54898;DHT22;40800;52.704;6.398;2023-05-07T00:04:08;14.80;99.90
54898;DHT22;40800;52.704;6.398;2023-05-07T00:06:34;14.80;99.90
54898;DHT22;40800;52.704;6.398;2023-05-07T00:09:00;15.30;99.90
54898;DHT22;40800;52.704;6.398;2023-05-07T00:11:26;15.20;99.90
54898;DHT22;40800;52.704;6.398;2023-05-07T00:13:52;14.80;99.90
54898;DHT22;40800;52.704;6.398;2023-05-07T00:16:18;14.80;99.90
54898;DHT22;40800;52.704;6.398;2023-05-07T00:18:43;15.10;99.90
54898;DHT22;40800;52.704;6.398;2023-05-07T00:21:09;14.90;99.90
54898;DHT22;40800;52.704;6.398;2023-05-07T00:23:35;14.70;99.90
54898;DHT22;40800;52.704;6.398;2023-05-07T00:26:00;15.10;99.90
54898;DHT22;40800;52.704;6.398;2023-05-07T00:28:26;14.90;99.90
54898;DHT22;40800;52.704;6.398;2023-05-07T00:30:52;14.60;99.90
54898;DHT22;40800;52.704;6.398;2023-05-07T00:33:17;15.00;99.90
54898;DHT22;40800;52.704;6.398;2023-05-07T00:35:43;14.90;99.90
54898;DHT22;40800;52.704;6.398;2023-05-07T00:38:08;14.60;99.90
54898;DHT22;40800;52.704;6.398;2023-05-07T00:40:34;15.10;99.90
54898;DHT22;40800;52.704;6.398;2023-05-07T00:43:00;15.10;99.90
54898;DHT22;40800;52.704;6.398;2023-05-07T00:45:28;15.00;99.90
54898;DHT22;40800;52.704;6.398;2023-05-07T00:47:55;15.20;99.90
54898;DHT22;40800;52.704;6.398;2023-05-07T00:50:22;14.70;99.90
54898;DHT22;40800;52.704;6.398;2023-05-07T00:52:48;15.20;99.90
54898;DHT22;40800;52.704;6.398;2023-05-07T00:55:14;15.10;99.90
54898;DHT22;40800;52.704;6.398;2023-05-07T00:57:41;14.90;99.90
54898;DHT22;40800;52.704;6.398;2023-05-07T01:00:08;15.10;99.90
54898;DHT22;40800;52.704;6.398;2023-05-07T01:02:35;15.10;99.90
54898;DHT22;40800;52.704;6.398;2023-05-07T01:05:02;15.10;99.90
54898;DHT22;40800;52.704;6.398;2023-05-07T01:07:29;14.90;99.90
54898;DHT22;40800;52.704;6.398;2023-05-07T01:09:55;14.60;99.90
54898;DHT22;40800;52.704;6.398;2023-05-07T01:12:21;15.00;99.90
54898;DHT22;40800;52.704;6.398;2023-05-07T01:14:47;14.60;99.90
54898;DHT22;40800;52.704;6.398;2023-05-07T01:17:15;15.10;99.90
54898;DHT22;40800;52.704;6.398;2023-05-07T01:19:41;15.00;99.90
54898;DHT22;40800;52.704;6.398;2023-05-07T01:22:10;14.70;99.90
54898;DHT22;40800;52.704;6.398;2023-05-07T01:24:40;14.90;99.90
54898;DHT22;40800;52.704;6.398;2023-05-07T01:27:06;14.50;99.90
54898;DHT22;40800;52.704;6.398;2023-05-07T01:29:32;14.70;99.90
54898;DHT22;40800;52.704;6.398;2023-05-07T01:31:59;14.40;99.90
54898;DHT22;40800;52.704;6.398;2023-05-07T01:34:28;14.90;99.90
54898;DHT22;40800;52.704;6.398;2023-05-07T01:36:56;14.40;99.90
54898;DHT22;40800;52.704;6.398;2023-05-07T01:39:25;14.70;99.90
54898;DHT22;40800;52.704;6.398;2023-05-07T01:41:54;14.90;99.90
54898;DHT22;40800;52.704;6.398;2023-05-07T01:44:20;14.30;99.90
54898;DHT22;40800;52.704;6.398;2023-05-07T01:46:46;14.80;99.90
54898;DHT22;40800;52.704;6.398;2023-05-07T01:49:12;14.80;99.90
54898;DHT22;40800;52.704;6.398;2023-05-07T01:51:39;14.80;99.90
54898;DHT22;40800;52.704;6.398;2023-05-07T01:54:05;14.50;99.90
54898;DHT22;40800;52.704;6.398;2023-05-07T01:56:32;14.90;99.90
54898;DHT22;40800;52.704;6.398;2023-05-07T01:58:57;14.40;99.90
54898;DHT22;40800;52.704;6.398;2023-05-07T02:01:23;14.80;99.90
54898;DHT22;40800;52.704;6.398;2023-05-07T02:03:48;14.80;99.90
54898;DHT22;40800;52.704;6.398;2023-05-07T02:06:14;14.30;99.90
54898;DHT22;40800;52.704;6.398;2023-05-07T02:08:40;14.40;99.90
54898;DHT22;40800;52.704;6.398;2023-05-07T02:11:05;14.60;99.90
54898;DHT22;40800;52.704;6.398;2023-05-07T02:13:32;14.20;99.90
54898;DHT22;40800;52.704;6.398;2023-05-07T02:15:58;14.20;99.90
54898;DHT22;40800;52.704;6.398;2023-05-07T02:18:24;14.60;99.90
54898;DHT22;40800;52.704;6.398;2023-05-07T02:20:49;14.20;99.90
54898;DHT22;40800;52.704;6.398;2023-05-07T02:23:15;14.20;99.90
54898;DHT22;40800;52.704;6.398;2023-05-07T02:25:40;14.10;99.90
54898;DHT22;40800;52.704;6.398;2023-05-07T02:28:06;14.10;99.90
54898;DHT22;40800;52.704;6.398;2023-05-07T02:30:32;13.90;99.90
54898;DHT22;40800;52.704;6.398;2023-05-07T02:32:58;13.90;99.90
54898;DHT22;40800;52.704;6.398;2023-05-07T02:35:25;13.90;99.90
54898;DHT22;40800;52.704;6.398;2023-05-07T02:37:50;14.30;99.90
54898;DHT22;40800;52.704;6.398;2023-05-07T02:40:16;14.30;99.90
54898;DHT22;40800;52.704;6.398;2023-05-07T02:42:41;14.00;99.90
54898;DHT22;40800;52.704;6.398;2023-05-07T02:45:07;14.10;99.90
54898;DHT22;40800;52.704;6.398;2023-05-07T02:47:33;13.90;99.90
54898;DHT22;40800;52.704;6.398;2023-05-07T02:49:59;13.90;99.90
54898;DHT22;40800;52.704;6.398;2023-05-07T02:52:24;13.70;99.90
54898;DHT22;40800;52.704;6.398;2023-05-07T02:54:50;13.60;99.90
54898;DHT22;40800;52.704;6.398;2023-05-07T02:57:15;13.60;99.90
54898;DHT22;40800;52.704;6.398;2023-05-07T02:59:42;14.00;99.90
54898;DHT22;40800;52.704;6.398;2023-05-07T03:02:07;13.60;99.90
54898;DHT22;40800;52.704;6.398;2023-05-07T03:04:33;13.70;99.90
54898;DHT22;40800;52.704;6.398;2023-05-07T03:06:58;13.70;99.90
54898;DHT22;40800;52.704;6.398;2023-05-07T03:09:24;13.30;99.90
54898;DHT22;40800;52.704;6.398;2023-05-07T03:11:49;13.50;99.90
54898;DHT22;40800;52.704;6.398;2023-05-07T03:14:15;13.50;99.90
54898;DHT22;40800;52.704;6.398;2023-05-07T03:16:40;13.30;99.90
54898;DHT22;40800;52.704;6.398;2023-05-07T03:19:06;13.70;99.90
54898;DHT22;40800;52.704;6.398;2023-05-07T03:21:31;13.30;99.90
54898;DHT22;40800;52.704;6.398;2023-05-07T03:23:59;13.30;99.90
54898;DHT22;40800;52.704;6.398;2023-05-07T03:26:25;13.20;99.90
54898;DHT22;40800;52.704;6.398;2023-05-07T03:28:51;13.20;99.90
54898;DHT22;40800;52.704;6.398;2023-05-07T03:31:16;13.60;99.90
54898;DHT22;40800;52.704;6.398;2023-05-07T03:33:56;13.20;99.90
54898;DHT22;40800;52.704;6.398;2023-05-07T03:36:23;13.20;99.90
54898;DHT22;40800;52.704;6.398;2023-05-07T03:38:49;13.10;99.90
54898;DHT22;40800;52.704;6.398;2023-05-07T03:41:15;13.50;99.90
54898;DHT22;40800;52.704;6.398;2023-05-07T03:43:40;13.40;99.90
54898;DHT22;40800;52.704;6.398;2023-05-07T03:46:06;13.00;99.90
54898;DHT22;40800;52.704;6.398;2023-05-07T03:48:31;13.30;99.90
54898;DHT22;40800;52.704;6.398;2023-05-07T03:50:58;13.40;99.90
54898;DHT22;40800;52.704;6.398;2023-05-07T03:53:24;13.40;99.90
54898;DHT22;40800;52.704;6.398;2023-05-07T03:55:49;13.30;99.90
54898;DHT22;40800;52.704;6.398;2023-05-07T03:58:15;12.90;99.90
54898;DHT22;40800;52.704;6.398;2023-05-07T04:00:41;13.30;99.90
54898;DHT22;40800;52.704;6.398;2023-05-07T04:03:07;13.00;99.90
54898;DHT22;40800;52.704;6.398;2023-05-07T04:05:32;12.90;99.90
54898;DHT22;40800;52.704;6.398;2023-05-07T04:07:59;13.00;99.90
54898;DHT22;40800;52.704;6.398;2023-05-07T04:10:24;12.80;99.90
54898;DHT22;40800;52.704;6.398;2023-05-07T04:12:50;13.20;99.90
54898;DHT22;40800;52.704;6.398;2023-05-07T04:15:16;13.10;99.90
54898;DHT22;40800;52.704;6.398;2023-05-07T04:17:41;13.20;99.90
54898;DHT22;40800;52.704;6.398;2023-05-07T04:20:10;12.70;99.90
54898;DHT22;40800;52.704;6.398;2023-05-07T04:22:36;12.80;99.90
54898;DHT22;40800;52.704;6.398;2023-05-07T04:25:02;13.00;99.90
54898;DHT22;40800;52.704;6.398;2023-05-07T04:27:28;13.20;99.90
54898;DHT22;40800;52.704;6.398;2023-05-07T04:29:53;13.10;99.90
54898;DHT22;40800;52.704;6.398;2023-05-07T04:32:22;13.20;99.90
54898;DHT22;40800;52.704;6.398;2023-05-07T04:34:47;12.80;99.90
54898;DHT22;40800;52.704;6.398;2023-05-07T04:37:13;12.80;99.90
54898;DHT22;40800;52.704;6.398;2023-05-07T04:39:38;13.10;99.90
54898;DHT22;40800;52.704;6.398;2023-05-07T04:42:04;13.20;99.90
54898;DHT22;40800;52.704;6.398;2023-05-07T04:44:30;12.80;99.90
54898;DHT22;40800;52.704;6.398;2023-05-07T04:46:56;13.20;99.90
54898;DHT22;40800;52.704;6.398;2023-05-07T04:49:22;13.10;99.90
54898;DHT22;40800;52.704;6.398;2023-05-07T04:51:48;12.80;99.90
54898;DHT22;40800;52.704;6.398;2023-05-07T04:54:13;13.00;99.90
54898;DHT22;40800;52.704;6.398;2023-05-07T04:56:39;12.90;99.90
54898;DHT22;40800;52.704;6.398;2023-05-07T04:59:04;12.90;99.90
54898;DHT22;40800;52.704;6.398;2023-05-07T05:01:31;13.10;99.90
54898;DHT22;40800;52.704;6.398;2023-05-07T05:03:56;13.30;99.90
54898;DHT22;40800;52.704;6.398;2023-05-07T05:06:22;12.90;99.90
54898;DHT22;40800;52.704;6.398;2023-05-07T05:08:47;12.90;99.90
54898;DHT22;40800;52.704;6.398;2023-05-07T05:11:13;12.90;99.90
54898;DHT22;40800;52.704;6.398;2023-05-07T05:13:38;12.90;99.90
54898;DHT22;40800;52.704;6.398;2023-05-07T05:16:04;12.90;99.90
54898;DHT22;40800;52.704;6.398;2023-05-07T05:18:31;13.00;99.90
54898;DHT22;40800;52.704;6.398;2023-05-07T05:20:56;13.20;99.90
54898;DHT22;40800;52.704;6.398;2023-05-07T05:23:22;13.00;99.90
54898;DHT22;40800;52.704;6.398;2023-05-07T05:25:47;13.00;99.90
54898;DHT22;40800;52.704;6.398;2023-05-07T05:28:13;13.20;99.90
54898;DHT22;40800;52.704;6.398;2023-05-07T05:30:39;13.20;99.90
54898;DHT22;40800;52.704;6.398;2023-05-07T05:33:04;13.30;99.90
54898;DHT22;40800;52.704;6.398;2023-05-07T05:35:30;13.50;99.90
54898;DHT22;40800;52.704;6.398;2023-05-07T05:37:56;13.10;99.90
54898;DHT22;40800;52.704;6.398;2023-05-07T05:40:21;13.40;99.90
54898;DHT22;40800;52.704;6.398;2023-05-07T05:42:47;13.40;99.90
54898;DHT22;40800;52.704;6.398;2023-05-07T05:45:12;13.10;99.90
54898;DHT22;40800;52.704;6.398;2023-05-07T05:47:38;13.10;99.90
54898;DHT22;40800;52.704;6.398;2023-05-07T05:50:05;13.50;99.90
54898;DHT22;40800;52.704;6.398;2023-05-07T05:52:31;13.30;99.90
54898;DHT22;40800;52.704;6.398;2023-05-07T05:54:57;13.40;99.90
54898;DHT22;40800;52.704;6.398;2023-05-07T05:57:22;13.50;99.90
54898;DHT22;40800;52.704;6.398;2023-05-07T05:59:48;13.50;99.90
54898;DHT22;40800;52.704;6.398;2023-05-07T06:02:14;13.40;99.90
54898;DHT22;40800;52.704;6.398;2023-05-07T06:04:39;13.30;99.90
54898;DHT22;40800;52.704;6.398;2023-05-07T06:07:05;13.60;99.90
54898;DHT22;40800;52.704;6.398;2023-05-07T06:09:31;13.40;99.90
54898;DHT22;40800;52.704;6.398;2023-05-07T06:11:56;13.70;99.90
54898;DHT22;40800;52.704;6.398;2023-05-07T06:14:22;13.60;99.90
54898;DHT22;40800;52.704;6.398;2023-05-07T06:16:48;13.50;99.90
54898;DHT22;40800;52.704;6.398;2023-05-07T06:19:13;13.70;99.90
54898;DHT22;40800;52.704;6.398;2023-05-07T06:21:39;13.50;99.90
54898;DHT22;40800;52.704;6.398;2023-05-07T06:24:05;13.40;99.90
54898;DHT22;40800;52.704;6.398;2023-05-07T06:26:31;13.70;99.90
54898;DHT22;40800;52.704;6.398;2023-05-07T06:28:56;13.50;99.90
54898;DHT22;40800;52.704;6.398;2023-05-07T06:31:22;13.70;99.90
54898;DHT22;40800;52.704;6.398;2023-05-07T06:33:48;13.80;99.90
54898;DHT22;40800;52.704;6.398;2023-05-07T06:36:14;13.50;99.90
54898;DHT22;40800;52.704;6.398;2023-05-07T06:38:40;13.50;99.90
54898;DHT22;40800;52.704;6.398;2023-05-07T06:41:06;13.50;99.90
54898;DHT22;40800;52.704;6.398;2023-05-07T06:43:32;13.50;99.90
54898;DHT22;40800;52.704;6.398;2023-05-07T06:45:57;13.50;99.90
54898;DHT22;40800;52.704;6.398;2023-05-07T06:48:23;13.50;99.90
54898;DHT22;40800;52.704;6.398;2023-05-07T06:50:48;13.70;99.90
54898;DHT22;40800;52.704;6.398;2023-05-07T06:53:14;13.90;99.90
54898;DHT22;40800;52.704;6.398;2023-05-07T06:55:39;13.80;99.90
54898;DHT22;40800;52.704;6.398;2023-05-07T06:58:06;13.90;99.90
54898;DHT22;40800;52.704;6.398;2023-05-07T07:00:31;13.80;99.90
54898;DHT22;40800;52.704;6.398;2023-05-07T07:02:57;13.80;99.90
54898;DHT22;40800;52.704;6.398;2023-05-07T07:05:22;14.20;99.90
54898;DHT22;40800;52.704;6.398;2023-05-07T07:07:48;14.20;99.90
54898;DHT22;40800;52.704;6.398;2023-05-07T07:10:20;14.20;99.90
54898;DHT22;40800;52.704;6.398;2023-05-07T07:12:46;14.00;99.90
54898;DHT22;40800;52.704;6.398;2023-05-07T07:15:11;14.10;99.90
54898;DHT22;40800;52.704;6.398;2023-05-07T07:17:37;14.40;99.90
54898;DHT22;40800;52.704;6.398;2023-05-07T07:20:03;14.40;99.90
54898;DHT22;40800;52.704;6.398;2023-05-07T07:22:29;14.50;99.90
54898;DHT22;40800;52.704;6.398;2023-05-07T07:24:54;14.50;99.90
54898;DHT22;40800;52.704;6.398;2023-05-07T07:27:20;14.60;99.90
54898;DHT22;40800;52.704;6.398;2023-05-07T07:29:45;14.40;99.90
54898;DHT22;40800;52.704;6.398;2023-05-07T07:32:11;14.50;99.90
54898;DHT22;40800;52.704;6.398;2023-05-07T07:34:36;14.80;99.90
54898;DHT22;40800;52.704;6.398;2023-05-07T07:37:02;14.60;99.90
54898;DHT22;40800;52.704;6.398;2023-05-07T07:39:31;14.60;99.90
54898;DHT22;40800;52.704;6.398;2023-05-07T07:41:57;14.70;99.90
54898;DHT22;40800;52.704;6.398;2023-05-07T07:44:22;14.90;99.90
54898;DHT22;40800;52.704;6.398;2023-05-07T07:46:48;15.10;99.90
54898;DHT22;40800;52.704;6.398;2023-05-07T07:49:14;15.00;99.90
54898;DHT22;40800;52.704;6.398;2023-05-07T07:51:40;15.20;99.90
54898;DHT22;40800;52.704;6.398;2023-05-07T07:54:06;15.10;99.90
54898;DHT22;40800;52.704;6.398;2023-05-07T07:56:32;15.10;99.90
54898;DHT22;40800;52.704;6.398;2023-05-07T07:58:59;15.10;99.90
54898;DHT22;40800;52.704;6.398;2023-05-07T08:01:24;15.20;99.90
54898;DHT22;40800;52.704;6.398;2023-05-07T08:03:50;15.20;99.90
54898;DHT22;40800;52.704;6.398;2023-05-07T08:06:15;15.30;99.90
54898;DHT22;40800;52.704;6.398;2023-05-07T08:08:41;15.40;99.90
54898;DHT22;40800;52.704;6.398;2023-05-07T08:11:06;15.50;99.90
54898;DHT22;40800;52.704;6.398;2023-05-07T08:13:32;15.60;99.90
54898;DHT22;40800;52.704;6.398;2023-05-07T08:15:58;15.70;99.90
54898;DHT22;40800;52.704;6.398;2023-05-07T08:18:24;15.80;99.90
54898;DHT22;40800;52.704;6.398;2023-05-07T08:20:50;15.90;99.90
54898;DHT22;40800;52.704;6.398;2023-05-07T08:23:16;15.90;99.90
54898;DHT22;40800;52.704;6.398;2023-05-07T08:25:41;16.10;99.90
54898;DHT22;40800;52.704;6.398;2023-05-07T08:28:08;16.20;99.90
54898;DHT22;40800;52.704;6.398;2023-05-07T08:30:33;16.30;99.90
54898;DHT22;40800;52.704;6.398;2023-05-07T08:33:00;16.30;99.90
54898;DHT22;40800;52.704;6.398;2023-05-07T08:35:26;16.50;99.90
54898;DHT22;40800;52.704;6.398;2023-05-07T08:37:52;16.60;99.90
54898;DHT22;40800;52.704;6.398;2023-05-07T08:40:18;16.70;99.90
54898;DHT22;40800;52.704;6.398;2023-05-07T08:42:44;16.90;99.90
54898;DHT22;40800;52.704;6.398;2023-05-07T08:45:10;17.00;99.90
54898;DHT22;40800;52.704;6.398;2023-05-07T08:47:44;17.10;99.90
54898;DHT22;40800;52.704;6.398;2023-05-07T08:50:11;17.00;99.90
54898;DHT22;40800;52.704;6.398;2023-05-07T08:52:37;17.00;99.90
54898;DHT22;40800;52.704;6.398;2023-05-07T08:55:03;17.10;99.90
54898;DHT22;40800;52.704;6.398;2023-05-07T08:57:28;17.20;99.90
54898;DHT22;40800;52.704;6.398;2023-05-07T08:59:55;17.40;99.90
54898;DHT22;40800;52.704;6.398;2023-05-07T09:02:20;17.50;99.90
54898;DHT22;40800;52.704;6.398;2023-05-07T09:04:46;17.70;99.90
54898;DHT22;40800;52.704;6.398;2023-05-07T09:07:11;17.70;99.90
54898;DHT22;40800;52.704;6.398;2023-05-07T09:09:37;17.80;99.90
54898;DHT22;40800;52.704;6.398;2023-05-07T09:12:03;17.90;59.00
54898;DHT22;40800;52.704;6.398;2023-05-07T09:14:29;18.00;68.60
54898;DHT22;40800;52.704;6.398;2023-05-07T09:16:56;18.00;28.40
54898;DHT22;40800;52.704;6.398;2023-05-07T09:19:23;18.00;12.00
54898;DHT22;40800;52.704;6.398;2023-05-07T09:21:48;18.10;27.40
54898;DHT22;40800;52.704;6.398;2023-05-07T09:24:15;18.30;1.00
54898;DHT22;40800;52.704;6.398;2023-05-07T09:26:41;18.50;9.70
54898;DHT22;40800;52.704;6.398;2023-05-07T09:29:07;18.50;1.00
54898;DHT22;40800;52.704;6.398;2023-05-07T09:31:37;18.60;1.00
54898;DHT22;40800;52.704;6.398;2023-05-07T09:34:04;18.70;1.00
54898;DHT22;40800;52.704;6.398;2023-05-07T09:36:31;18.80;1.00
54898;DHT22;40800;52.704;6.398;2023-05-07T09:38:59;18.90;1.00
54898;DHT22;40800;52.704;6.398;2023-05-07T09:41:25;18.90;1.00
54898;DHT22;40800;52.704;6.398;2023-05-07T09:43:54;19.00;1.00
54898;DHT22;40800;52.704;6.398;2023-05-07T09:46:27;19.10;1.00
54898;DHT22;40800;52.704;6.398;2023-05-07T09:48:56;19.10;1.00
54898;DHT22;40800;52.704;6.398;2023-05-07T09:51:28;19.30;1.00
54898;DHT22;40800;52.704;6.398;2023-05-07T09:53:54;19.50;1.00
54898;DHT22;40800;52.704;6.398;2023-05-07T09:56:21;19.90;1.00
54898;DHT22;40800;52.704;6.398;2023-05-07T09:58:49;20.10;99.90
54898;DHT22;40800;52.704;6.398;2023-05-07T10:01:15;20.30;99.90
54898;DHT22;40800;52.704;6.398;2023-05-07T10:03:43;20.40;99.90
54898;DHT22;40800;52.704;6.398;2023-05-07T10:06:09;20.40;99.90
54898;DHT22;40800;52.704;6.398;2023-05-07T10:08:36;20.60;99.90
54898;DHT22;40800;52.704;6.398;2023-05-07T10:11:04;20.90;99.90
54898;DHT22;40800;52.704;6.398;2023-05-07T10:13:30;21.00;99.90
54898;DHT22;40800;52.704;6.398;2023-05-07T10:15:55;21.00;99.90
54898;DHT22;40800;52.704;6.398;2023-05-07T10:18:22;21.00;99.90
54898;DHT22;40800;52.704;6.398;2023-05-07T10:20:50;21.30;99.90
54898;DHT22;40800;52.704;6.398;2023-05-07T10:23:23;21.30;99.90
54898;DHT22;40800;52.704;6.398;2023-05-07T10:25:49;21.30;99.90
54898;DHT22;40800;52.704;6.398;2023-05-07T10:28:16;21.40;99.90
54898;DHT22;40800;52.704;6.398;2023-05-07T10:33:13;21.60;6.00
54898;DHT22;40800;52.704;6.398;2023-05-07T10:35:42;21.40;27.80
54898;DHT22;40800;52.704;6.398;2023-05-07T10:38:08;21.40;1.00
54898;DHT22;40800;52.704;6.398;2023-05-07T10:40:34;21.50;1.00
54898;DHT22;40800;52.704;6.398;2023-05-07T10:43:03;21.40;1.00
54898;DHT22;40800;52.704;6.398;2023-05-07T10:45:34;21.40;5.20
54898;DHT22;40800;52.704;6.398;2023-05-07T10:48:09;21.40;71.40
54898;DHT22;40800;52.704;6.398;2023-05-07T10:50:36;21.60;1.00
54898;DHT22;40800;52.704;6.398;2023-05-07T10:55:48;21.70;43.00
54898;DHT22;40800;52.704;6.398;2023-05-07T10:58:29;21.80;1.00
54898;DHT22;40800;52.704;6.398;2023-05-07T11:00:59;21.80;1.00
54898;DHT22;40800;52.704;6.398;2023-05-07T11:03:26;22.10;1.00
54898;DHT22;40800;52.704;6.398;2023-05-07T11:06:12;22.00;1.00
54898;DHT22;40800;52.704;6.398;2023-05-07T11:11:19;22.00;99.90
54898;DHT22;40800;52.704;6.398;2023-05-07T11:13:48;22.10;99.90
54898;DHT22;40800;52.704;6.398;2023-05-07T11:16:24;22.30;99.90
54898;DHT22;40800;52.704;6.398;2023-05-07T11:18:51;22.50;99.90
54898;DHT22;40800;52.704;6.398;2023-05-07T11:21:35;22.60;99.90
54898;DHT22;40800;52.704;6.398;2023-05-07T11:24:02;22.50;99.90
54898;DHT22;40800;52.704;6.398;2023-05-07T11:26:29;22.50;95.40
54898;DHT22;40800;52.704;6.398;2023-05-07T11:28:56;22.40;8.50
54898;DHT22;40800;52.704;6.398;2023-05-07T11:31:24;22.40;1.00
54898;DHT22;40800;52.704;6.398;2023-05-07T11:33:52;22.30;1.00
54898;DHT22;40800;52.704;6.398;2023-05-07T11:36:18;22.40;99.90
54898;DHT22;40800;52.704;6.398;2023-05-07T11:38:44;22.30;99.90
54898;DHT22;40800;52.704;6.398;2023-05-07T11:41:09;22.30;99.90
54898;DHT22;40800;52.704;6.398;2023-05-07T11:43:35;22.60;99.90
54898;DHT22;40800;52.704;6.398;2023-05-07T11:46:09;22.70;99.90
54898;DHT22;40800;52.704;6.398;2023-05-07T11:48:35;22.80;99.90
54898;DHT22;40800;52.704;6.398;2023-05-07T11:51:02;22.90;76.20
54898;DHT22;40800;52.704;6.398;2023-05-07T11:53:36;22.90;1.00
54898;DHT22;40800;52.704;6.398;2023-05-07T11:56:13;22.80;1.00
54898;DHT22;40800;52.704;6.398;2023-05-07T11:58:40;22.70;1.00
54898;DHT22;40800;52.704;6.398;2023-05-07T12:01:10;22.60;1.00
54898;DHT22;40800;52.704;6.398;2023-05-07T12:03:37;22.60;99.90
54898;DHT22;40800;52.704;6.398;2023-05-07T12:06:05;22.50;99.90
54898;DHT22;40800;52.704;6.398;2023-05-07T12:08:31;22.30;99.90
54898;DHT22;40800;52.704;6.398;2023-05-07T12:10:57;22.00;99.90
54898;DHT22;40800;52.704;6.398;2023-05-07T12:13:24;21.80;99.90
54898;DHT22;40800;52.704;6.398;2023-05-07T12:15:53;21.90;99.90
54898;DHT22;40800;52.704;6.398;2023-05-07T12:18:20;22.10;99.90
54898;DHT22;40800;52.704;6.398;2023-05-07T12:20:46;22.00;99.90
54898;DHT22;40800;52.704;6.398;2023-05-07T12:23:13;22.00;99.90
54898;DHT22;40800;52.704;6.398;2023-05-07T12:25:39;22.00;99.90
54898;DHT22;40800;52.704;6.398;2023-05-07T12:28:08;22.00;99.90
54898;DHT22;40800;52.704;6.398;2023-05-07T12:30:38;22.00;99.90
54898;DHT22;40800;52.704;6.398;2023-05-07T12:33:04;21.90;99.90
54898;DHT22;40800;52.704;6.398;2023-05-07T12:35:31;21.90;99.90
54898;DHT22;40800;52.704;6.398;2023-05-07T12:37:58;22.00;99.90
54898;DHT22;40800;52.704;6.398;2023-05-07T12:40:38;22.30;99.90
54898;DHT22;40800;52.704;6.398;2023-05-07T12:43:03;22.50;99.90
54898;DHT22;40800;52.704;6.398;2023-05-07T12:45:29;22.80;99.90
54898;DHT22;40800;52.704;6.398;2023-05-07T12:48:01;22.80;99.90
54898;DHT22;40800;52.704;6.398;2023-05-07T12:50:31;22.80;99.90
54898;DHT22;40800;52.704;6.398;2023-05-07T12:52:57;22.80;99.90
54898;DHT22;40800;52.704;6.398;2023-05-07T12:55:23;22.70;99.90
54898;DHT22;40800;52.704;6.398;2023-05-07T12:57:49;22.50;95.50
54898;DHT22;40800;52.704;6.398;2023-05-07T13:00:16;22.40;99.90
54898;DHT22;40800;52.704;6.398;2023-05-07T13:02:42;22.30;60.60
54898;DHT22;40800;52.704;6.398;2023-05-07T13:05:11;22.10;67.80
54898;DHT22;40800;52.704;6.398;2023-05-07T13:07:37;22.00;75.60
54898;DHT22;40800;52.704;6.398;2023-05-07T13:10:04;21.90;96.90
54898;DHT22;40800;52.704;6.398;2023-05-07T13:12:29;21.80;99.20
54898;DHT22;40800;52.704;6.398;2023-05-07T13:14:55;21.80;76.10
54898;DHT22;40800;52.704;6.398;2023-05-07T13:17:21;21.70;99.90
54898;DHT22;40800;52.704;6.398;2023-05-07T13:19:46;21.60;99.90
54898;DHT22;40800;52.704;6.398;2023-05-07T13:22:12;21.60;99.90
54898;DHT22;40800;52.704;6.398;2023-05-07T13:24:37;21.70;99.90
54898;DHT22;40800;52.704;6.398;2023-05-07T13:27:03;21.70;99.90
54898;DHT22;40800;52.704;6.398;2023-05-07T13:29:29;21.80;99.90
54898;DHT22;40800;52.704;6.398;2023-05-07T13:31:58;21.80;99.90
54898;DHT22;40800;52.704;6.398;2023-05-07T13:34:24;21.80;99.90
54898;DHT22;40800;52.704;6.398;2023-05-07T13:36:49;21.70;93.40
54898;DHT22;40800;52.704;6.398;2023-05-07T13:39:15;21.60;80.90
54898;DHT22;40800;52.704;6.398;2023-05-07T13:41:41;21.50;93.70
54898;DHT22;40800;52.704;6.398;2023-05-07T13:44:06;21.50;79.60
54898;DHT22;40800;52.704;6.398;2023-05-07T13:46:32;21.50;49.60
54898;DHT22;40800;52.704;6.398;2023-05-07T13:48:58;21.50;64.30
54898;DHT22;40800;52.704;6.398;2023-05-07T13:51:23;21.50;82.00
54898;DHT22;40800;52.704;6.398;2023-05-07T13:53:49;21.50;98.50
54898;DHT22;40800;52.704;6.398;2023-05-07T13:56:14;21.60;99.90
54898;DHT22;40800;52.704;6.398;2023-05-07T13:58:40;21.60;99.90
54898;DHT22;40800;52.704;6.398;2023-05-07T14:01:06;21.60;99.90
54898;DHT22;40800;52.704;6.398;2023-05-07T14:03:31;21.50;56.70
54898;DHT22;40800;52.704;6.398;2023-05-07T14:05:59;21.40;70.10
54898;DHT22;40800;52.704;6.398;2023-05-07T14:08:26;21.30;99.90
54898;DHT22;40800;52.704;6.398;2023-05-07T14:10:52;21.30;99.90
54898;DHT22;40800;52.704;6.398;2023-05-07T14:13:18;21.30;99.90
54898;DHT22;40800;52.704;6.398;2023-05-07T14:15:43;21.40;99.90
54898;DHT22;40800;52.704;6.398;2023-05-07T14:18:12;21.40;99.90
54898;DHT22;40800;52.704;6.398;2023-05-07T14:20:38;21.40;99.90
54898;DHT22;40800;52.704;6.398;2023-05-07T14:23:03;21.40;99.90
54898;DHT22;40800;52.704;6.398;2023-05-07T14:25:29;21.30;93.60
54898;DHT22;40800;52.704;6.398;2023-05-07T14:27:54;21.30;99.90
54898;DHT22;40800;52.704;6.398;2023-05-07T14:30:21;21.20;99.90
54898;DHT22;40800;52.704;6.398;2023-05-07T14:32:49;21.10;99.90
54898;DHT22;40800;52.704;6.398;2023-05-07T14:35:15;21.00;99.90
54898;DHT22;40800;52.704;6.398;2023-05-07T14:37:41;20.90;99.90
54898;DHT22;40800;52.704;6.398;2023-05-07T14:40:07;20.90;99.90
54898;DHT22;40800;52.704;6.398;2023-05-07T14:42:33;20.80;99.90
54898;DHT22;40800;52.704;6.398;2023-05-07T14:44:58;20.70;99.90
54898;DHT22;40800;52.704;6.398;2023-05-07T14:47:24;20.70;99.90
54898;DHT22;40800;52.704;6.398;2023-05-07T14:49:49;20.60;99.90
54898;DHT22;40800;52.704;6.398;2023-05-07T14:52:15;20.60;99.90
54898;DHT22;40800;52.704;6.398;2023-05-07T14:54:40;20.50;99.90
54898;DHT22;40800;52.704;6.398;2023-05-07T14:57:08;20.40;99.90
54898;DHT22;40800;52.704;6.398;2023-05-07T14:59:34;20.40;99.90
54898;DHT22;40800;52.704;6.398;2023-05-07T15:01:59;20.30;99.90
54898;DHT22;40800;52.704;6.398;2023-05-07T15:04:25;20.30;99.90
54898;DHT22;40800;52.704;6.398;2023-05-07T15:06:50;20.30;99.90
54898;DHT22;40800;52.704;6.398;2023-05-07T15:09:17;20.30;99.90
54898;DHT22;40800;52.704;6.398;2023-05-07T15:11:42;20.20;99.90
54898;DHT22;40800;52.704;6.398;2023-05-07T15:14:08;20.20;1.00
54898;DHT22;40800;52.704;6.398;2023-05-07T15:16:34;20.10;1.00
54898;DHT22;40800;52.704;6.398;2023-05-07T15:18:59;20.60;1.00
54898;DHT22;40800;52.704;6.398;2023-05-07T15:21:25;20.10;1.00
54898;DHT22;40800;52.704;6.398;2023-05-07T15:23:52;20.10;1.00
54898;DHT22;40800;52.704;6.398;2023-05-07T15:26:17;20.10;1.00
54898;DHT22;40800;52.704;6.398;2023-05-07T15:28:43;20.10;1.00
54898;DHT22;40800;52.704;6.398;2023-05-07T15:31:08;20.00;1.00
54898;DHT22;40800;52.704;6.398;2023-05-07T15:33:34;20.00;1.00
54898;DHT22;40800;52.704;6.398;2023-05-07T15:36:00;20.00;75.80